Terminal Aerodrome Forecast
Issued by NWS Tampa Bay Area, FL

Home | Current Version | Previous Version | Text Only | Print | Product List | Glossary On
Versions: 1 2 3 4 5 6 7 8 9 10 11 12 13 14 15 16 17
521
FTUS42 KTBW 290042 AAB
TAFSRQ
TAF AMD
KSRQ 290042Z 2901/2924 09007KT P6SM VCTS SCT050CB BKN250
      TEMPO 2901/2902 10015G25KT 1SM TSRA BKN020CB
     FM290300 08004KT P6SM SCT130 BKN250
     FM291400 13007KT P6SM SCT030 BKN250
     FM291700 25008KT P6SM VCTS SCT040CB BKN250=

USA.gov is the U.S. government's official web portal to all federal, state and local government web resources and services.